sensor_id;sensor_type;location;lat;lon;timestamp;P1;durP1;ratioP1;P2;durP2;ratioP2
12554;SDS011;6343;50.868;4.700;2023-06-05T00:00:12;6.03;;;2.40;;
12554;SDS011;6343;50.868;4.700;2023-06-05T00:02:40;4.20;;;2.40;;
12554;SDS011;6343;50.868;4.700;2023-06-05T00:05:06;7.17;;;2.40;;
12554;SDS011;6343;50.868;4.700;2023-06-05T00:07:34;7.97;;;2.60;;
12554;SDS011;6343;50.868;4.700;2023-06-05T00:10:03;5.93;;;2.20;;
12554;SDS011;6343;50.868;4.700;2023-06-05T00:12:29;6.63;;;2.53;;
12554;SDS011;6343;50.868;4.700;2023-06-05T00:14:55;4.00;;;2.27;;
12554;SDS011;6343;50.868;4.700;2023-06-05T00:17:21;6.87;;;2.87;;
12554;SDS011;6343;50.868;4.700;2023-06-05T00:19:47;6.27;;;2.60;;
12554;SDS011;6343;50.868;4.700;2023-06-05T00:22:13;7.33;;;2.43;;
12554;SDS011;6343;50.868;4.700;2023-06-05T00:24:39;4.93;;;2.30;;
12554;SDS011;6343;50.868;4.700;2023-06-05T00:27:06;5.77;;;2.93;;
12554;SDS011;6343;50.868;4.700;2023-06-05T00:29:32;4.50;;;2.27;;
12554;SDS011;6343;50.868;4.700;2023-06-05T00:31:58;5.17;;;2.57;;
12554;SDS011;6343;50.868;4.700;2023-06-05T00:34:24;4.67;;;2.30;;
12554;SDS011;6343;50.868;4.700;2023-06-05T00:36:50;2.80;;;2.03;;
12554;SDS011;6343;50.868;4.700;2023-06-05T00:39:17;7.73;;;2.53;;
12554;SDS011;6343;50.868;4.700;2023-06-05T00:41:46;11.50;;;2.83;;
12554;SDS011;6343;50.868;4.700;2023-06-05T00:44:12;5.17;;;2.23;;
12554;SDS011;6343;50.868;4.700;2023-06-05T00:46:38;4.53;;;2.70;;
12554;SDS011;6343;50.868;4.700;2023-06-05T00:49:05;5.83;;;2.37;;
12554;SDS011;6343;50.868;4.700;2023-06-05T00:51:31;5.20;;;2.60;;
12554;SDS011;6343;50.868;4.700;2023-06-05T00:53:57;4.73;;;2.43;;
12554;SDS011;6343;50.868;4.700;2023-06-05T00:56:24;7.73;;;2.93;;
12554;SDS011;6343;50.868;4.700;2023-06-05T00:58:50;4.07;;;2.60;;
12554;SDS011;6343;50.868;4.700;2023-06-05T01:01:18;3.30;;;2.40;;
12554;SDS011;6343;50.868;4.700;2023-06-05T01:03:46;5.27;;;2.70;;
12554;SDS011;6343;50.868;4.700;2023-06-05T01:06:12;6.10;;;2.60;;
12554;SDS011;6343;50.868;4.700;2023-06-05T01:08:41;7.50;;;2.37;;
12554;SDS011;6343;50.868;4.700;2023-06-05T01:11:13;6.30;;;3.13;;
12554;SDS011;6343;50.868;4.700;2023-06-05T01:13:44;4.23;;;2.50;;
12554;SDS011;6343;50.868;4.700;2023-06-05T01:16:12;4.50;;;2.77;;
12554;SDS011;6343;50.868;4.700;2023-06-05T01:18:40;4.47;;;2.30;;
12554;SDS011;6343;50.868;4.700;2023-06-05T01:21:11;6.40;;;2.80;;
12554;SDS011;6343;50.868;4.700;2023-06-05T01:23:43;6.83;;;2.80;;
12554;SDS011;6343;50.868;4.700;2023-06-05T01:26:15;4.30;;;2.80;;
12554;SDS011;6343;50.868;4.700;2023-06-05T01:28:43;8.73;;;3.40;;
12554;SDS011;6343;50.868;4.700;2023-06-05T01:31:12;5.23;;;2.60;;
12554;SDS011;6343;50.868;4.700;2023-06-05T01:33:54;7.00;;;3.07;;
12554;SDS011;6343;50.868;4.700;2023-06-05T01:36:23;6.50;;;2.80;;
12554;SDS011;6343;50.868;4.700;2023-06-05T01:38:50;6.27;;;2.97;;
12554;SDS011;6343;50.868;4.700;2023-06-05T01:41:17;5.43;;;2.77;;
12554;SDS011;6343;50.868;4.700;2023-06-05T01:43:44;8.07;;;3.23;;
12554;SDS011;6343;50.868;4.700;2023-06-05T01:46:12;4.23;;;2.70;;
12554;SDS011;6343;50.868;4.700;2023-06-05T01:48:39;7.70;;;2.77;;
12554;SDS011;6343;50.868;4.700;2023-06-05T01:51:06;8.13;;;2.93;;
12554;SDS011;6343;50.868;4.700;2023-06-05T01:53:32;4.40;;;2.87;;
12554;SDS011;6343;50.868;4.700;2023-06-05T01:55:58;5.73;;;2.80;;
12554;SDS011;6343;50.868;4.700;2023-06-05T01:58:25;4.80;;;2.97;;
12554;SDS011;6343;50.868;4.700;2023-06-05T02:00:51;6.53;;;3.00;;
12554;SDS011;6343;50.868;4.700;2023-06-05T02:03:18;6.30;;;3.20;;
12554;SDS011;6343;50.868;4.700;2023-06-05T02:05:45;4.00;;;2.80;;
12554;SDS011;6343;50.868;4.700;2023-06-05T02:08:11;5.97;;;3.00;;
12554;SDS011;6343;50.868;4.700;2023-06-05T02:10:38;6.23;;;3.00;;
12554;SDS011;6343;50.868;4.700;2023-06-05T02:13:08;7.53;;;3.33;;
12554;SDS011;6343;50.868;4.700;2023-06-05T02:15:34;5.13;;;2.87;;
12554;SDS011;6343;50.868;4.700;2023-06-05T02:18:01;12.07;;;3.03;;
12554;SDS011;6343;50.868;4.700;2023-06-05T02:20:28;7.20;;;3.03;;
12554;SDS011;6343;50.868;4.700;2023-06-05T02:22:54;5.77;;;2.87;;
12554;SDS011;6343;50.868;4.700;2023-06-05T02:25:20;5.03;;;3.33;;
12554;SDS011;6343;50.868;4.700;2023-06-05T02:27:50;5.03;;;2.80;;
12554;SDS011;6343;50.868;4.700;2023-06-05T02:30:17;7.17;;;3.20;;
12554;SDS011;6343;50.868;4.700;2023-06-05T02:32:43;5.47;;;3.07;;
12554;SDS011;6343;50.868;4.700;2023-06-05T02:35:13;6.60;;;3.07;;
12554;SDS011;6343;50.868;4.700;2023-06-05T02:37:39;11.60;;;3.70;;
12554;SDS011;6343;50.868;4.700;2023-06-05T02:40:10;6.50;;;3.57;;
12554;SDS011;6343;50.868;4.700;2023-06-05T02:42:36;5.00;;;2.60;;
12554;SDS011;6343;50.868;4.700;2023-06-05T02:45:02;5.87;;;3.13;;
12554;SDS011;6343;50.868;4.700;2023-06-05T02:47:29;8.07;;;3.23;;
12554;SDS011;6343;50.868;4.700;2023-06-05T02:49:56;11.53;;;3.90;;
12554;SDS011;6343;50.868;4.700;2023-06-05T02:52:22;4.90;;;3.23;;
12554;SDS011;6343;50.868;4.700;2023-06-05T02:54:49;6.90;;;3.40;;
12554;SDS011;6343;50.868;4.700;2023-06-05T02:57:15;5.70;;;3.23;;
12554;SDS011;6343;50.868;4.700;2023-06-05T02:59:42;6.77;;;3.40;;
12554;SDS011;6343;50.868;4.700;2023-06-05T03:02:09;9.47;;;3.33;;
12554;SDS011;6343;50.868;4.700;2023-06-05T03:04:36;6.93;;;3.37;;
12554;SDS011;6343;50.868;4.700;2023-06-05T03:07:04;6.57;;;3.40;;
12554;SDS011;6343;50.868;4.700;2023-06-05T03:09:30;9.87;;;3.50;;
12554;SDS011;6343;50.868;4.700;2023-06-05T03:11:57;5.77;;;3.17;;
12554;SDS011;6343;50.868;4.700;2023-06-05T03:14:23;3.93;;;2.90;;
12554;SDS011;6343;50.868;4.700;2023-06-05T03:16:49;7.47;;;3.80;;
12554;SDS011;6343;50.868;4.700;2023-06-05T03:19:16;6.67;;;4.10;;
12554;SDS011;6343;50.868;4.700;2023-06-05T03:21:42;5.63;;;3.03;;
12554;SDS011;6343;50.868;4.700;2023-06-05T03:24:09;7.17;;;3.20;;
12554;SDS011;6343;50.868;4.700;2023-06-05T03:26:39;6.67;;;3.60;;
12554;SDS011;6343;50.868;4.700;2023-06-05T03:29:06;5.43;;;3.70;;
12554;SDS011;6343;50.868;4.700;2023-06-05T03:31:32;6.23;;;3.80;;
12554;SDS011;6343;50.868;4.700;2023-06-05T03:33:59;7.73;;;3.77;;
12554;SDS011;6343;50.868;4.700;2023-06-05T03:36:25;6.77;;;3.70;;
12554;SDS011;6343;50.868;4.700;2023-06-05T03:38:53;7.60;;;3.93;;
12554;SDS011;6343;50.868;4.700;2023-06-05T03:41:19;8.73;;;3.40;;
12554;SDS011;6343;50.868;4.700;2023-06-05T03:43:46;8.87;;;3.73;;
12554;SDS011;6343;50.868;4.700;2023-06-05T03:46:14;8.50;;;4.10;;
12554;SDS011;6343;50.868;4.700;2023-06-05T03:48:44;6.27;;;4.10;;
12554;SDS011;6343;50.868;4.700;2023-06-05T03:51:10;5.63;;;3.80;;
12554;SDS011;6343;50.868;4.700;2023-06-05T03:53:36;7.37;;;3.93;;
12554;SDS011;6343;50.868;4.700;2023-06-05T03:56:07;5.53;;;4.20;;
12554;SDS011;6343;50.868;4.700;2023-06-05T03:58:34;6.87;;;3.53;;
12554;SDS011;6343;50.868;4.700;2023-06-05T04:01:00;8.27;;;3.83;;
12554;SDS011;6343;50.868;4.700;2023-06-05T04:03:26;7.80;;;3.67;;
12554;SDS011;6343;50.868;4.700;2023-06-05T04:05:53;12.70;;;4.33;;
12554;SDS011;6343;50.868;4.700;2023-06-05T04:08:19;7.27;;;4.27;;
12554;SDS011;6343;50.868;4.700;2023-06-05T04:10:45;9.97;;;4.00;;
12554;SDS011;6343;50.868;4.700;2023-06-05T04:13:12;7.00;;;4.27;;
12554;SDS011;6343;50.868;4.700;2023-06-05T04:15:38;7.47;;;4.23;;
12554;SDS011;6343;50.868;4.700;2023-06-05T04:18:04;8.63;;;4.13;;
12554;SDS011;6343;50.868;4.700;2023-06-05T04:20:30;12.80;;;4.30;;
12554;SDS011;6343;50.868;4.700;2023-06-05T04:22:56;5.00;;;3.73;;
12554;SDS011;6343;50.868;4.700;2023-06-05T04:25:22;6.80;;;3.87;;
12554;SDS011;6343;50.868;4.700;2023-06-05T04:27:49;8.43;;;4.33;;
12554;SDS011;6343;50.868;4.700;2023-06-05T04:30:16;6.73;;;3.83;;
12554;SDS011;6343;50.868;4.700;2023-06-05T04:32:43;5.43;;;4.13;;
12554;SDS011;6343;50.868;4.700;2023-06-05T04:35:18;6.03;;;4.30;;
12554;SDS011;6343;50.868;4.700;2023-06-05T04:37:44;7.90;;;3.90;;
12554;SDS011;6343;50.868;4.700;2023-06-05T04:40:11;8.93;;;4.43;;
12554;SDS011;6343;50.868;4.700;2023-06-05T04:42:37;7.90;;;4.43;;
12554;SDS011;6343;50.868;4.700;2023-06-05T04:45:04;7.03;;;4.20;;
12554;SDS011;6343;50.868;4.700;2023-06-05T04:47:31;10.33;;;5.07;;
12554;SDS011;6343;50.868;4.700;2023-06-05T04:49:58;6.87;;;4.20;;
12554;SDS011;6343;50.868;4.700;2023-06-05T04:52:24;7.80;;;4.43;;
12554;SDS011;6343;50.868;4.700;2023-06-05T04:54:51;6.70;;;4.60;;
12554;SDS011;6343;50.868;4.700;2023-06-05T04:57:18;6.77;;;4.37;;
12554;SDS011;6343;50.868;4.700;2023-06-05T04:59:44;8.67;;;4.57;;
12554;SDS011;6343;50.868;4.700;2023-06-05T05:02:11;6.23;;;4.77;;
12554;SDS011;6343;50.868;4.700;2023-06-05T05:04:37;7.07;;;4.63;;
12554;SDS011;6343;50.868;4.700;2023-06-05T05:07:03;9.07;;;4.90;;
12554;SDS011;6343;50.868;4.700;2023-06-05T05:09:30;7.07;;;4.73;;
12554;SDS011;6343;50.868;4.700;2023-06-05T05:11:57;9.40;;;5.23;;
12554;SDS011;6343;50.868;4.700;2023-06-05T05:14:24;7.33;;;4.60;;
12554;SDS011;6343;50.868;4.700;2023-06-05T05:16:52;7.77;;;4.47;;
12554;SDS011;6343;50.868;4.700;2023-06-05T05:19:18;8.40;;;4.73;;
12554;SDS011;6343;50.868;4.700;2023-06-05T05:21:47;9.97;;;4.70;;
12554;SDS011;6343;50.868;4.700;2023-06-05T05:24:14;9.33;;;5.00;;
12554;SDS011;6343;50.868;4.700;2023-06-05T05:26:40;7.13;;;5.63;;
12554;SDS011;6343;50.868;4.700;2023-06-05T05:29:06;7.03;;;5.17;;
12554;SDS011;6343;50.868;4.700;2023-06-05T05:31:33;8.33;;;5.40;;
12554;SDS011;6343;50.868;4.700;2023-06-05T05:33:59;9.37;;;5.70;;
12554;SDS011;6343;50.868;4.700;2023-06-05T05:36:25;8.63;;;4.90;;
12554;SDS011;6343;50.868;4.700;2023-06-05T05:38:52;10.67;;;5.37;;
12554;SDS011;6343;50.868;4.700;2023-06-05T05:41:18;13.13;;;5.37;;
12554;SDS011;6343;50.868;4.700;2023-06-05T05:43:45;7.63;;;4.17;;
12554;SDS011;6343;50.868;4.700;2023-06-05T05:46:12;6.57;;;4.93;;
12554;SDS011;6343;50.868;4.700;2023-06-05T05:48:38;8.43;;;5.10;;
12554;SDS011;6343;50.868;4.700;2023-06-05T05:51:04;9.73;;;5.33;;
12554;SDS011;6343;50.868;4.700;2023-06-05T05:53:31;8.73;;;5.80;;
12554;SDS011;6343;50.868;4.700;2023-06-05T05:55:57;8.47;;;5.20;;
12554;SDS011;6343;50.868;4.700;2023-06-05T05:58:23;7.00;;;5.57;;
12554;SDS011;6343;50.868;4.700;2023-06-05T06:00:49;12.23;;;5.40;;
12554;SDS011;6343;50.868;4.700;2023-06-05T06:03:18;8.47;;;5.73;;
12554;SDS011;6343;50.868;4.700;2023-06-05T06:05:45;9.00;;;5.73;;
12554;SDS011;6343;50.868;4.700;2023-06-05T06:08:12;10.50;;;5.37;;
12554;SDS011;6343;50.868;4.700;2023-06-05T06:10:38;8.30;;;5.47;;
12554;SDS011;6343;50.868;4.700;2023-06-05T06:13:05;11.57;;;5.60;;
12554;SDS011;6343;50.868;4.700;2023-06-05T06:15:31;8.27;;;4.97;;
12554;SDS011;6343;50.868;4.700;2023-06-05T06:17:58;8.33;;;5.53;;
12554;SDS011;6343;50.868;4.700;2023-06-05T06:20:27;8.80;;;5.53;;
12554;SDS011;6343;50.868;4.700;2023-06-05T06:22:54;7.60;;;5.57;;
12554;SDS011;6343;50.868;4.700;2023-06-05T06:25:20;9.00;;;5.20;;
12554;SDS011;6343;50.868;4.700;2023-06-05T06:27:47;9.60;;;5.13;;
12554;SDS011;6343;50.868;4.700;2023-06-05T06:30:18;10.43;;;5.70;;
12554;SDS011;6343;50.868;4.700;2023-06-05T06:32:45;10.47;;;5.93;;
12554;SDS011;6343;50.868;4.700;2023-06-05T06:35:11;7.40;;;5.30;;
12554;SDS011;6343;50.868;4.700;2023-06-05T06:37:39;9.07;;;4.90;;
12554;SDS011;6343;50.868;4.700;2023-06-05T06:40:05;8.60;;;5.37;;
12554;SDS011;6343;50.868;4.700;2023-06-05T06:42:36;14.23;;;5.03;;
12554;SDS011;6343;50.868;4.700;2023-06-05T06:45:02;10.27;;;5.30;;
12554;SDS011;6343;50.868;4.700;2023-06-05T06:47:29;8.37;;;5.20;;
12554;SDS011;6343;50.868;4.700;2023-06-05T06:49:55;7.63;;;4.83;;
12554;SDS011;6343;50.868;4.700;2023-06-05T06:52:22;7.83;;;5.50;;
12554;SDS011;6343;50.868;4.700;2023-06-05T06:54:49;7.40;;;5.23;;
12554;SDS011;6343;50.868;4.700;2023-06-05T06:57:15;11.13;;;5.33;;
12554;SDS011;6343;50.868;4.700;2023-06-05T07:00:54;8.70;;;3.57;;
12554;SDS011;6343;50.868;4.700;2023-06-05T07:03:21;4.30;;;3.13;;
12554;SDS011;6343;50.868;4.700;2023-06-05T07:05:48;8.80;;;4.50;;
12554;SDS011;6343;50.868;4.700;2023-06-05T07:08:14;7.10;;;3.93;;
12554;SDS011;6343;50.868;4.700;2023-06-05T07:10:40;6.13;;;4.10;;
12554;SDS011;6343;50.868;4.700;2023-06-05T07:13:07;13.70;;;3.77;;
12554;SDS011;6343;50.868;4.700;2023-06-05T07:15:33;9.77;;;4.80;;
12554;SDS011;6343;50.868;4.700;2023-06-05T07:17:59;95.27;;;11.03;;
12554;SDS011;6343;50.868;4.700;2023-06-05T07:20:26;211.47;;;21.23;;
12554;SDS011;6343;50.868;4.700;2023-06-05T07:22:52;192.27;;;16.70;;
12554;SDS011;6343;50.868;4.700;2023-06-05T07:25:18;106.70;;;12.00;;
12554;SDS011;6343;50.868;4.700;2023-06-05T07:27:46;35.97;;;8.13;;
12554;SDS011;6343;50.868;4.700;2023-06-05T07:30:12;65.20;;;10.70;;
12554;SDS011;6343;50.868;4.700;2023-06-05T07:32:39;28.90;;;6.43;;
12554;SDS011;6343;50.868;4.700;2023-06-05T07:35:07;63.20;;;9.27;;
12554;SDS011;6343;50.868;4.700;2023-06-05T07:37:33;20.13;;;6.00;;
12554;SDS011;6343;50.868;4.700;2023-06-05T07:40:00;22.80;;;5.67;;
12554;SDS011;6343;50.868;4.700;2023-06-05T07:42:26;12.77;;;5.53;;
12554;SDS011;6343;50.868;4.700;2023-06-05T07:44:52;23.07;;;5.70;;
12554;SDS011;6343;50.868;4.700;2023-06-05T07:47:18;7.73;;;5.63;;
12554;SDS011;6343;50.868;4.700;2023-06-05T07:49:44;8.70;;;5.77;;
12554;SDS011;6343;50.868;4.700;2023-06-05T07:52:10;14.60;;;5.30;;
12554;SDS011;6343;50.868;4.700;2023-06-05T07:54:36;79.10;;;9.37;;
12554;SDS011;6343;50.868;4.700;2023-06-05T07:57:03;54.77;;;8.27;;
12554;SDS011;6343;50.868;4.700;2023-06-05T07:59:29;39.60;;;7.47;;
12554;SDS011;6343;50.868;4.700;2023-06-05T08:01:57;13.60;;;7.47;;
12554;SDS011;6343;50.868;4.700;2023-06-05T08:04:26;19.93;;;5.37;;
12554;SDS011;6343;50.868;4.700;2023-06-05T08:06:52;22.43;;;6.60;;
12554;SDS011;6343;50.868;4.700;2023-06-05T08:09:18;26.87;;;7.07;;
12554;SDS011;6343;50.868;4.700;2023-06-05T08:11:44;17.73;;;6.87;;
12554;SDS011;6343;50.868;4.700;2023-06-05T08:14:11;16.27;;;6.40;;
12554;SDS011;6343;50.868;4.700;2023-06-05T08:16:37;11.97;;;5.67;;
12554;SDS011;6343;50.868;4.700;2023-06-05T08:19:03;11.40;;;5.73;;
12554;SDS011;6343;50.868;4.700;2023-06-05T08:21:29;13.87;;;5.70;;
12554;SDS011;6343;50.868;4.700;2023-06-05T08:23:55;10.93;;;5.40;;
12554;SDS011;6343;50.868;4.700;2023-06-05T08:26:21;11.33;;;5.43;;
12554;SDS011;6343;50.868;4.700;2023-06-05T08:28:48;18.17;;;6.87;;
12554;SDS011;6343;50.868;4.700;2023-06-05T08:31:15;9.77;;;6.33;;
12554;SDS011;6343;50.868;4.700;2023-06-05T08:33:41;13.67;;;6.87;;
12554;SDS011;6343;50.868;4.700;2023-06-05T08:36:08;65.13;;;11.20;;
12554;SDS011;6343;50.868;4.700;2023-06-05T08:38:34;24.17;;;7.10;;
12554;SDS011;6343;50.868;4.700;2023-06-05T08:41:04;22.77;;;6.60;;
12554;SDS011;6343;50.868;4.700;2023-06-05T08:43:30;15.47;;;6.57;;
12554;SDS011;6343;50.868;4.700;2023-06-05T08:45:57;15.03;;;6.20;;
12554;SDS011;6343;50.868;4.700;2023-06-05T08:48:26;14.57;;;5.97;;
12554;SDS011;6343;50.868;4.700;2023-06-05T08:50:56;56.50;;;11.47;;
12554;SDS011;6343;50.868;4.700;2023-06-05T08:53:23;8.70;;;6.57;;
12554;SDS011;6343;50.868;4.700;2023-06-05T08:55:53;12.67;;;7.27;;
12554;SDS011;6343;50.868;4.700;2023-06-05T08:58:21;8.87;;;7.00;;
12554;SDS011;6343;50.868;4.700;2023-06-05T09:00:48;13.77;;;6.13;;
12554;SDS011;6343;50.868;4.700;2023-06-05T09:03:14;19.03;;;6.67;;
12554;SDS011;6343;50.868;4.700;2023-06-05T09:05:43;12.13;;;6.47;;
12554;SDS011;6343;50.868;4.700;2023-06-05T09:08:09;14.60;;;6.53;;
12554;SDS011;6343;50.868;4.700;2023-06-05T09:10:35;10.20;;;6.13;;
12554;SDS011;6343;50.868;4.700;2023-06-05T09:13:02;10.63;;;6.40;;
12554;SDS011;6343;50.868;4.700;2023-06-05T09:15:33;11.43;;;7.53;;
12554;SDS011;6343;50.868;4.700;2023-06-05T09:18:03;10.97;;;6.27;;
12554;SDS011;6343;50.868;4.700;2023-06-05T09:20:33;9.30;;;5.30;;
12554;SDS011;6343;50.868;4.700;2023-06-05T09:23:03;17.67;;;7.43;;
12554;SDS011;6343;50.868;4.700;2023-06-05T09:25:46;8.47;;;6.30;;
12554;SDS011;6343;50.868;4.700;2023-06-05T09:28:13;9.40;;;6.10;;
12554;SDS011;6343;50.868;4.700;2023-06-05T09:31:00;10.43;;;6.70;;
12554;SDS011;6343;50.868;4.700;2023-06-05T09:33:30;13.37;;;6.60;;
12554;SDS011;6343;50.868;4.700;2023-06-05T09:38:30;11.20;;;6.43;;
12554;SDS011;6343;50.868;4.700;2023-06-05T09:41:03;8.43;;;6.40;;
12554;SDS011;6343;50.868;4.700;2023-06-05T09:43:29;9.87;;;5.90;;
12554;SDS011;6343;50.868;4.700;2023-06-05T09:45:55;9.40;;;6.57;;
12554;SDS011;6343;50.868;4.700;2023-06-05T09:48:21;12.60;;;6.65;;
12554;SDS011;6343;50.868;4.700;2023-06-05T09:50:47;8.80;;;5.75;;
12554;SDS011;6343;50.868;4.700;2023-06-05T09:53:14;10.90;;;6.28;;
12554;SDS011;6343;50.868;4.700;2023-06-05T09:55:41;13.82;;;6.65;;
12554;SDS011;6343;50.868;4.700;2023-06-05T09:58:08;10.87;;;5.77;;
12554;SDS011;6343;50.868;4.700;2023-06-05T10:00:39;13.02;;;6.30;;
12554;SDS011;6343;50.868;4.700;2023-06-05T10:03:13;9.73;;;6.70;;
12554;SDS011;6343;50.868;4.700;2023-06-05T10:05:40;9.20;;;6.63;;
12554;SDS011;6343;50.868;4.700;2023-06-05T10:08:08;8.35;;;6.38;;
12554;SDS011;6343;50.868;4.700;2023-06-05T10:10:35;7.45;;;6.35;;
12554;SDS011;6343;50.868;4.700;2023-06-05T10:13:01;10.25;;;6.43;;
12554;SDS011;6343;50.868;4.700;2023-06-05T10:15:27;8.90;;;5.43;;
12554;SDS011;6343;50.868;4.700;2023-06-05T10:17:54;8.27;;;5.75;;
12554;SDS011;6343;50.868;4.700;2023-06-05T10:20:21;9.45;;;5.78;;
12554;SDS011;6343;50.868;4.700;2023-06-05T10:22:47;8.73;;;5.63;;
12554;SDS011;6343;50.868;4.700;2023-06-05T10:25:15;8.02;;;5.35;;
12554;SDS011;6343;50.868;4.700;2023-06-05T10:35:08;9.25;;;6.63;;
12554;SDS011;6343;50.868;4.700;2023-06-05T10:37:53;7.10;;;5.95;;
12554;SDS011;6343;50.868;4.700;2023-06-05T10:40:23;11.82;;;5.43;;
12554;SDS011;6343;50.868;4.700;2023-06-05T10:42:49;7.88;;;5.45;;
12554;SDS011;6343;50.868;4.700;2023-06-05T10:45:29;7.75;;;5.40;;
12554;SDS011;6343;50.868;4.700;2023-06-05T10:47:55;12.30;;;5.40;;
12554;SDS011;6343;50.868;4.700;2023-06-05T10:50:22;8.98;;;5.63;;
12554;SDS011;6343;50.868;4.700;2023-06-05T10:52:50;8.40;;;4.85;;
12554;SDS011;6343;50.868;4.700;2023-06-05T10:55:17;8.75;;;5.43;;
12554;SDS011;6343;50.868;4.700;2023-06-05T10:58:02;8.32;;;5.88;;
12554;SDS011;6343;50.868;4.700;2023-06-05T11:00:29;11.75;;;8.65;;
12554;SDS011;6343;50.868;4.700;2023-06-05T11:02:56;8.45;;;4.93;;
12554;SDS011;6343;50.868;4.700;2023-06-05T11:05:22;10.02;;;5.53;;
12554;SDS011;6343;50.868;4.700;2023-06-05T11:08:09;7.50;;;4.88;;
12554;SDS011;6343;50.868;4.700;2023-06-05T11:10:35;6.43;;;4.93;;
12554;SDS011;6343;50.868;4.700;2023-06-05T11:13:01;9.15;;;4.82;;
12554;SDS011;6343;50.868;4.700;2023-06-05T11:17:57;9.38;;;4.65;;
12554;SDS011;6343;50.868;4.700;2023-06-05T11:23:12;9.55;;;5.68;;
12554;SDS011;6343;50.868;4.700;2023-06-05T11:25:39;8.38;;;4.63;;
12554;SDS011;6343;50.868;4.700;2023-06-05T11:28:05;7.95;;;4.93;;
12554;SDS011;6343;50.868;4.700;2023-06-05T11:30:39;9.18;;;4.35;;
12554;SDS011;6343;50.868;4.700;2023-06-05T11:33:09;7.75;;;4.47;;
12554;SDS011;6343;50.868;4.700;2023-06-05T11:35:37;8.43;;;4.25;;
12554;SDS011;6343;50.868;4.700;2023-06-05T11:38:10;5.75;;;3.97;;
12554;SDS011;6343;50.868;4.700;2023-06-05T11:40:37;9.18;;;4.22;;
12554;SDS011;6343;50.868;4.700;2023-06-05T11:43:04;7.55;;;4.47;;
12554;SDS011;6343;50.868;4.700;2023-06-05T11:45:31;6.03;;;3.88;;
12554;SDS011;6343;50.868;4.700;2023-06-05T11:48:05;6.60;;;3.63;;
12554;SDS011;6343;50.868;4.700;2023-06-05T11:50:31;7.40;;;4.10;;
12554;SDS011;6343;50.868;4.700;2023-06-05T11:53:06;7.78;;;3.95;;
12554;SDS011;6343;50.868;4.700;2023-06-05T11:55:33;10.23;;;4.45;;
12554;SDS011;6343;50.868;4.700;2023-06-05T11:58:12;6.65;;;3.90;;
12554;SDS011;6343;50.868;4.700;2023-06-05T12:00:46;10.65;;;5.05;;
12554;SDS011;6343;50.868;4.700;2023-06-05T12:03:19;8.40;;;3.83;;
12554;SDS011;6343;50.868;4.700;2023-06-05T12:05:47;10.65;;;3.83;;
12554;SDS011;6343;50.868;4.700;2023-06-05T12:10:50;8.15;;;3.65;;
12554;SDS011;6343;50.868;4.700;2023-06-05T12:13:16;7.22;;;3.65;;
12554;SDS011;6343;50.868;4.700;2023-06-05T12:15:42;7.78;;;4.07;;
12554;SDS011;6343;50.868;4.700;2023-06-05T12:18:08;15.60;;;5.38;;
12554;SDS011;6343;50.868;4.700;2023-06-05T12:20:38;6.60;;;3.53;;
12554;SDS011;6343;50.868;4.700;2023-06-05T12:23:07;6.18;;;4.20;;
12554;SDS011;6343;50.868;4.700;2023-06-05T12:25:33;9.18;;;4.15;;
12554;SDS011;6343;50.868;4.700;2023-06-05T12:27:59;13.63;;;3.95;;
12554;SDS011;6343;50.868;4.700;2023-06-05T12:30:25;6.63;;;3.28;;
12554;SDS011;6343;50.868;4.700;2023-06-05T12:33:05;5.60;;;3.33;;
12554;SDS011;6343;50.868;4.700;2023-06-05T12:35:33;4.65;;;3.22;;
12554;SDS011;6343;50.868;4.700;2023-06-05T12:38:00;7.03;;;3.63;;
12554;SDS011;6343;50.868;4.700;2023-06-05T12:40:26;11.18;;;4.00;;
12554;SDS011;6343;50.868;4.700;2023-06-05T12:42:52;6.22;;;4.10;;
12554;SDS011;6343;50.868;4.700;2023-06-05T12:45:20;7.97;;;3.22;;
12554;SDS011;6343;50.868;4.700;2023-06-05T12:47:47;4.70;;;2.78;;
12554;SDS011;6343;50.868;4.700;2023-06-05T12:50:13;6.05;;;3.15;;
12554;SDS011;6343;50.868;4.700;2023-06-05T12:52:41;2.95;;;2.53;;
12554;SDS011;6343;50.868;4.700;2023-06-05T12:55:07;6.55;;;3.63;;
12554;SDS011;6343;50.868;4.700;2023-06-05T12:57:34;9.88;;;3.40;;
12554;SDS011;6343;50.868;4.700;2023-06-05T13:00:02;4.18;;;2.78;;
12554;SDS011;6343;50.868;4.700;2023-06-05T13:02:42;6.47;;;3.22;;
12554;SDS011;6343;50.868;4.700;2023-06-05T13:05:12;4.72;;;2.95;;
12554;SDS011;6343;50.868;4.700;2023-06-05T13:07:38;5.95;;;3.25;;
12554;SDS011;6343;50.868;4.700;2023-06-05T13:10:05;6.47;;;3.40;;
12554;SDS011;6343;50.868;4.700;2023-06-05T13:12:31;5.57;;;2.97;;
12554;SDS011;6343;50.868;4.700;2023-06-05T13:14:57;6.65;;;2.60;;
12554;SDS011;6343;50.868;4.700;2023-06-05T13:17:25;4.60;;;2.97;;
12554;SDS011;6343;50.868;4.700;2023-06-05T13:19:52;10.63;;;3.95;;
12554;SDS011;6343;50.868;4.700;2023-06-05T13:22:19;7.63;;;3.08;;
12554;SDS011;6343;50.868;4.700;2023-06-05T13:24:45;6.78;;;3.35;;
12554;SDS011;6343;50.868;4.700;2023-06-05T13:27:12;5.13;;;3.15;;
12554;SDS011;6343;50.868;4.700;2023-06-05T13:29:39;4.32;;;2.35;;
12554;SDS011;6343;50.868;4.700;2023-06-05T13:32:05;5.70;;;3.50;;
12554;SDS011;6343;50.868;4.700;2023-06-05T13:34:31;5.95;;;2.95;;
12554;SDS011;6343;50.868;4.700;2023-06-05T13:36:58;4.53;;;3.08;;
12554;SDS011;6343;50.868;4.700;2023-06-05T13:39:24;35.83;;;5.30;;
12554;SDS011;6343;50.868;4.700;2023-06-05T13:41:50;4.80;;;3.03;;
12554;SDS011;6343;50.868;4.700;2023-06-05T13:44:16;7.90;;;3.40;;
12554;SDS011;6343;50.868;4.700;2023-06-05T13:46:42;8.02;;;3.20;;
12554;SDS011;6343;50.868;4.700;2023-06-05T13:49:09;5.95;;;3.30;;
12554;SDS011;6343;50.868;4.700;2023-06-05T13:51:36;4.28;;;3.33;;
12554;SDS011;6343;50.868;4.700;2023-06-05T13:54:03;7.75;;;3.30;;
12554;SDS011;6343;50.868;4.700;2023-06-05T13:56:29;8.38;;;3.15;;
12554;SDS011;6343;50.868;4.700;2023-06-05T13:58:55;5.22;;;3.50;;
12554;SDS011;6343;50.868;4.700;2023-06-05T14:01:22;6.13;;;3.20;;
12554;SDS011;6343;50.868;4.700;2023-06-05T14:03:49;7.00;;;2.85;;
12554;SDS011;6343;50.868;4.700;2023-06-05T14:06:16;4.75;;;2.83;;
12554;SDS011;6343;50.868;4.700;2023-06-05T14:08:42;4.07;;;2.78;;
12554;SDS011;6343;50.868;4.700;2023-06-05T14:11:08;6.25;;;3.30;;
12554;SDS011;6343;50.868;4.700;2023-06-05T14:13:35;9.02;;;3.53;;
12554;SDS011;6343;50.868;4.700;2023-06-05T14:16:01;8.25;;;3.38;;
12554;SDS011;6343;50.868;4.700;2023-06-05T14:18:28;6.57;;;2.88;;
12554;SDS011;6343;50.868;4.700;2023-06-05T14:20:54;6.53;;;2.92;;
12554;SDS011;6343;50.868;4.700;2023-06-05T14:23:20;7.40;;;2.63;;
12554;SDS011;6343;50.868;4.700;2023-06-05T14:25:49;7.05;;;3.10;;
12554;SDS011;6343;50.868;4.700;2023-06-05T14:28:15;9.38;;;3.33;;
12554;SDS011;6343;50.868;4.700;2023-06-05T14:30:41;5.07;;;3.15;;
12554;SDS011;6343;50.868;4.700;2023-06-05T14:33:07;4.35;;;2.83;;
12554;SDS011;6343;50.868;4.700;2023-06-05T14:35:33;5.93;;;3.22;;
12554;SDS011;6343;50.868;4.700;2023-06-05T14:37:59;7.55;;;3.13;;
12554;SDS011;6343;50.868;4.700;2023-06-05T14:40:25;7.07;;;3.22;;
12554;SDS011;6343;50.868;4.700;2023-06-05T14:42:51;4.53;;;3.28;;
12554;SDS011;6343;50.868;4.700;2023-06-05T14:45:17;6.32;;;3.22;;
12554;SDS011;6343;50.868;4.700;2023-06-05T14:47:43;5.75;;;3.28;;
12554;SDS011;6343;50.868;4.700;2023-06-05T14:50:12;6.82;;;2.90;;
12554;SDS011;6343;50.868;4.700;2023-06-05T14:52:38;6.28;;;3.03;;
12554;SDS011;6343;50.868;4.700;2023-06-05T14:55:04;4.93;;;3.10;;
12554;SDS011;6343;50.868;4.700;2023-06-05T14:57:30;6.25;;;3.17;;
12554;SDS011;6343;50.868;4.700;2023-06-05T14:59:57;4.18;;;2.80;;
12554;SDS011;6343;50.868;4.700;2023-06-05T15:02:23;6.10;;;2.95;;
12554;SDS011;6343;50.868;4.700;2023-06-05T15:04:49;6.15;;;2.58;;
12554;SDS011;6343;50.868;4.700;2023-06-05T15:07:18;4.80;;;2.83;;
12554;SDS011;6343;50.868;4.700;2023-06-05T15:09:45;6.15;;;2.83;;
12554;SDS011;6343;50.868;4.700;2023-06-05T15:12:11;6.82;;;3.17;;
12554;SDS011;6343;50.868;4.700;2023-06-05T15:14:37;5.63;;;3.03;;
12554;SDS011;6343;50.868;4.700;2023-06-05T15:17:03;5.72;;;3.03;;